Time;durP1;ratioP1;P1;durP2;ratioP2;P2;SDS_P1;SDS_P2;PMS_P1;PMS_P2;Temp;Humidity;BMP_temperature;BMP_pressure;BME280_temperature;BME280_humidity;BME280_pressure;Samples;Min_cycle;Max_cycle;Signal;HPM_P1;HPM_P2
2022/05/06 00:02:15;;;;;;;25.52;13.10;;;11.70;99.90;;;;;;5127212;27;20035;-69
2022/05/06 00:04:43;;;;;;;44.65;12.65;;;11.70;99.90;;;;;;5097412;27;20059;-69
2022/05/06 00:07:11;;;;;;;125.80;13.52;;;11.60;99.90;;;;;;5127774;27;20050;-69
2022/05/06 00:09:38;;;;;;;33.13;11.23;;;11.60;99.90;;;;;;5128603;27;20027;-71
2022/05/06 00:12:04;;;;;;;25.25;13.85;;;11.60;99.90;;;;;;5127508;27;20469;-71
2022/05/06 00:14:30;;;;;;;21.20;11.52;;;11.60;99.90;;;;;;5124834;27;20167;-71
2022/05/06 00:16:56;;;;;;;127.03;14.02;;;11.50;99.90;;;;;;5129665;27;20111;-68
2022/05/06 00:19:21;;;;;;;25.58;11.18;;;11.50;99.90;;;;;;5127930;27;20913;-71
2022/05/06 00:21:47;;;;;;;26.08;13.18;;;11.50;99.90;;;;;;5129483;27;20533;-71
2022/05/06 00:24:13;;;;;;;24.48;13.40;;;11.40;99.90;;;;;;5126681;27;20026;-69
2022/05/06 00:26:38;;;;;;;25.13;14.20;;;11.40;99.90;;;;;;5121238;27;20039;-69
2022/05/06 00:29:04;;;;;;;24.38;13.82;;;11.30;99.90;;;;;;5126787;27;20031;-70
2022/05/06 00:31:29;;;;;;;23.98;13.60;;;11.30;99.90;;;;;;5127340;27;20034;-71
2022/05/06 00:33:55;;;;;;;25.65;14.57;;;11.30;99.90;;;;;;5126404;27;20413;-71
2022/05/06 00:36:21;;;;;;;22.25;13.27;;;11.30;99.90;;;;;;5119993;27;20437;-72
2022/05/06 00:38:46;;;;;;;24.33;13.73;;;11.30;99.90;;;;;;5120383;27;20061;-71
2022/05/06 00:41:12;;;;;;;26.42;13.93;;;11.20;99.90;;;;;;5126591;27;20055;-71
2022/05/06 00:43:40;;;;;;;24.17;13.40;;;11.20;99.90;;;;;;5103218;28;20110;-69
2022/05/06 00:46:10;;;;;;;30.38;13.93;;;11.20;99.90;;;;;;5117312;27;20067;-72
2022/05/06 00:48:35;;;;;;;23.05;13.20;;;11.20;99.90;;;;;;5128246;27;20077;-70
2022/05/06 00:51:03;;;;;;;25.17;13.90;;;11.20;99.90;;;;;;5109383;27;20036;-70
2022/05/06 00:53:29;;;;;;;28.25;15.43;;;11.20;99.90;;;;;;5120049;27;20030;-71
2022/05/06 00:55:56;;;;;;;33.13;17.10;;;11.20;99.90;;;;;;5123661;27;20039;-70
2022/05/06 00:58:23;;;;;;;30.88;16.55;;;11.20;99.90;;;;;;5111762;27;20459;-71
2022/05/06 01:00:49;;;;;;;34.42;17.05;;;11.20;99.90;;;;;;5127040;27;20059;-70
2022/05/06 01:03:15;;;;;;;33.50;17.75;;;11.20;99.90;;;;;;5126263;27;20069;-70
2022/05/06 01:05:41;;;;;;;82.82;16.63;;;11.20;99.90;;;;;;5129343;27;20082;-70
2022/05/06 01:08:08;;;;;;;167.60;18.23;;;11.10;99.90;;;;;;5128223;27;20088;-71
2022/05/06 01:10:35;;;;;;;115.03;14.18;;;11.10;99.90;;;;;;5118454;27;20690;-71
2022/05/06 01:13:01;;;;;;;30.70;13.45;;;11.00;99.90;;;;;;5116027;27;20054;-71
2022/05/06 01:15:28;;;;;;;26.85;14.45;;;11.10;99.90;;;;;;5128292;27;20055;-70
2022/05/06 01:17:56;;;;;;;24.83;13.82;;;11.00;99.90;;;;;;5125366;27;20084;-69
2022/05/06 01:20:23;;;;;;;27.00;13.77;;;11.00;99.90;;;;;;5128079;28;20027;-71
2022/05/06 01:22:58;;;;;;;30.02;16.23;;;10.90;99.90;;;;;;5128588;28;20023;-70
2022/05/06 01:25:24;;;;;;;30.30;15.38;;;11.00;99.90;;;;;;5128356;28;20414;-70
2022/05/06 01:28:02;;;;;;;27.85;14.65;;;11.00;99.90;;;;;;5127013;28;20038;-71
2022/05/06 01:30:36;;;;;;;30.27;15.88;;;11.00;99.90;;;;;;5116588;28;20023;-71
2022/05/06 01:33:04;;;;;;;27.83;15.23;;;11.00;99.90;;;;;;5113355;28;20027;-71
2022/05/06 01:35:32;;;;;;;28.98;15.27;;;11.10;99.90;;;;;;5119563;27;20036;-70
2022/05/06 01:38:04;;;;;;;24.08;13.65;;;11.10;99.90;;;;;;5113711;27;20148;-71
2022/05/06 01:40:40;;;;;;;25.15;13.82;;;11.10;99.90;;;;;;5131599;27;20087;-70
2022/05/06 01:43:09;;;;;;;160.35;13.75;;;11.10;99.90;;;;;;5125689;27;20027;-70
2022/05/06 01:45:37;;;;;;;75.25;12.23;;;11.10;99.90;;;;;;5131282;27;20428;-70
2022/05/06 01:48:03;;;;;;;63.60;12.55;;;11.00;99.90;;;;;;5128546;27;20377;-71
2022/05/06 01:50:32;;;;;;;70.13;13.00;;;10.90;99.90;;;;;;5130691;27;20429;-72
2022/05/06 01:52:59;;;;;;;78.63;13.20;;;10.90;99.90;;;;;;5131761;27;20151;-70
2022/05/06 01:55:25;;;;;;;45.05;11.95;;;10.90;99.90;;;;;;5120914;27;20390;-71
2022/05/06 01:57:51;;;;;;;57.03;12.70;;;10.90;99.90;;;;;;5133448;27;20023;-69
2022/05/06 02:00:17;;;;;;;21.23;12.02;;;10.80;99.90;;;;;;5116123;27;20093;-71
2022/05/06 02:02:43;;;;;;;23.10;12.00;;;10.90;99.90;;;;;;5113877;28;20035;-70
2022/05/06 02:05:18;;;;;;;20.13;11.88;;;10.80;99.90;;;;;;5115708;27;20039;-69
2022/05/06 02:07:48;;;;;;;20.83;11.73;;;10.80;99.90;;;;;;5129793;27;20038;-69
2022/05/06 02:10:15;;;;;;;18.30;11.10;;;10.80;99.90;;;;;;5130949;27;20490;-71
2022/05/06 02:12:41;;;;;;;18.88;10.90;;;10.80;99.90;;;;;;5123909;27;20035;-68
2022/05/06 02:15:10;;;;;;;20.20;11.73;;;10.90;99.90;;;;;;5126932;27;20023;-71
2022/05/06 02:17:38;;;;;;;20.98;11.80;;;10.90;99.90;;;;;;5120533;27;20035;-70
2022/05/06 02:20:05;;;;;;;19.63;11.38;;;10.80;99.90;;;;;;5129243;27;20113;-70
2022/05/06 02:22:31;;;;;;;20.77;12.15;;;10.90;99.90;;;;;;5132623;27;20031;-70
2022/05/06 02:24:57;;;;;;;20.02;11.63;;;10.90;99.90;;;;;;5123224;27;20054;-72
2022/05/06 02:27:23;;;;;;;19.17;11.68;;;10.90;99.90;;;;;;5131085;27;20107;-71
2022/05/06 02:35:17;;;;;;;20.25;11.75;;;10.80;99.90;;;;;;5129060;27;20519;-70
2022/05/06 02:37:42;;;;;;;21.17;11.75;;;10.80;99.90;;;;;;5130787;27;20039;-69
2022/05/06 02:40:09;;;;;;;21.23;12.00;;;10.80;99.90;;;;;;5128792;27;20015;-69
2022/05/06 02:42:36;;;;;;;21.75;12.15;;;10.80;99.90;;;;;;5131328;27;20031;-71
2022/05/06 02:45:02;;;;;;;22.75;13.02;;;10.80;99.90;;;;;;5119720;27;20036;-70
2022/05/06 02:47:29;;;;;;;25.20;13.80;;;10.80;99.90;;;;;;5112788;28;20028;-71
2022/05/06 02:49:55;;;;;;;25.38;14.07;;;10.80;99.90;;;;;;5105084;28;20470;-70
2022/05/06 02:52:22;;;;;;;27.33;14.32;;;10.80;99.90;;;;;;5115030;27;20111;-70
2022/05/06 02:54:47;;;;;;;27.90;14.40;;;10.80;99.90;;;;;;5127811;27;20073;-72
2022/05/06 02:57:13;;;;;;;31.08;15.95;;;10.90;99.90;;;;;;5131462;27;20424;-70
2022/05/06 02:59:39;;;;;;;29.50;16.48;;;10.90;99.90;;;;;;5129022;27;20632;-71
2022/05/06 03:02:06;;;;;;;41.60;14.48;;;10.90;99.90;;;;;;5129898;27;20156;-70
2022/05/06 03:04:32;;;;;;;30.45;13.07;;;10.90;99.90;;;;;;5131235;27;20073;-71
2022/05/06 03:06:58;;;;;;;21.33;12.57;;;10.90;99.90;;;;;;5116865;27;20448;-71
2022/05/06 03:09:24;;;;;;;23.67;13.90;;;10.80;99.90;;;;;;5124880;27;20039;-71
2022/05/06 03:11:50;;;;;;;52.72;12.60;;;10.80;99.90;;;;;;5126309;27;20057;-68
2022/05/06 03:14:16;;;;;;;134.50;12.23;;;10.90;99.90;;;;;;5112909;27;20423;-71
2022/05/06 03:16:42;;;;;;;20.27;11.10;;;10.80;99.90;;;;;;5126804;27;20106;-71
2022/05/06 03:19:07;;;;;;;18.88;10.75;;;10.70;99.90;;;;;;5128335;27;20019;-70
2022/05/06 03:21:34;;;;;;;22.77;12.68;;;10.70;99.90;;;;;;5114136;27;20031;-70
2022/05/06 03:24:00;;;;;;;24.58;13.77;;;10.70;99.90;;;;;;5124318;27;20478;-71
2022/05/06 03:26:26;;;;;;;25.80;13.45;;;10.70;99.90;;;;;;5126844;27;20035;-70
2022/05/06 03:28:57;;;;;;;30.25;16.95;;;10.80;99.90;;;;;;5119671;27;20110;-70
2022/05/06 03:31:25;;;;;;;26.60;15.85;;;10.80;99.90;;;;;;5113816;27;20030;-70
2022/05/06 03:33:52;;;;;;;27.77;15.10;;;10.80;99.90;;;;;;5118358;27;20023;-69
2022/05/06 03:36:18;;;;;;;38.95;16.02;;;10.80;99.90;;;;;;5128815;27;20046;-69
2022/05/06 03:38:44;;;;;;;26.83;13.90;;;10.90;99.90;;;;;;5126101;27;20039;-69
2022/05/06 03:41:09;;;;;;;240.88;16.70;;;10.90;99.90;;;;;;5116787;27;20047;-69
2022/05/06 03:43:35;;;;;;;106.53;13.60;;;10.90;99.90;;;;;;5130747;27;20030;-69
2022/05/06 03:46:01;;;;;;;22.70;11.88;;;10.90;99.90;;;;;;5128245;27;20031;-70
2022/05/06 03:48:26;;;;;;;23.75;11.75;;;10.80;99.90;;;;;;5121453;27;20063;-70
2022/05/06 03:53:37;;;;;;;22.50;12.25;;;10.80;99.90;;;;;;5121660;27;20078;-70
2022/05/06 03:56:04;;;;;;;58.47;13.05;;;10.80;99.90;;;;;;5123835;27;20055;-73
2022/05/06 03:58:31;;;;;;;153.90;13.48;;;10.80;99.90;;;;;;5118530;27;20070;-69
2022/05/06 04:00:57;;;;;;;277.92;15.85;;;10.90;99.90;;;;;;5114923;27;20027;-70
2022/05/06 04:03:23;;;;;;;98.63;12.95;;;10.90;99.90;;;;;;5131032;27;20035;-70
2022/05/06 04:05:48;;;;;;;251.13;15.80;;;10.80;99.90;;;;;;5130382;27;20057;-70
2022/05/06 04:08:14;;;;;;;120.45;13.10;;;10.80;99.90;;;;;;5128291;27;20086;-70
2022/05/06 04:10:40;;;;;;;40.25;11.05;;;10.80;99.90;;;;;;5130023;27;20065;-70
2022/05/06 04:13:05;;;;;;;45.17;13.48;;;10.80;99.90;;;;;;5130020;27;20031;-70
2022/05/06 04:15:34;;;;;;;21.25;12.73;;;10.80;99.90;;;;;;5112245;27;20029;-68
2022/05/06 04:18:01;;;;;;;22.65;13.07;;;10.70;99.90;;;;;;5128520;27;20037;-72
2022/05/06 04:23:29;;;;;;;27.33;13.80;;;10.80;99.90;;;;;;5115768;27;20034;-70
2022/05/06 04:26:04;;;;;;;173.98;16.30;;;10.80;99.90;;;;;;5122728;27;20046;-67
2022/05/06 04:28:31;;;;;;;33.95;12.63;;;10.70;99.90;;;;;;5120790;27;20043;-68
2022/05/06 04:30:57;;;;;;;21.45;11.32;;;10.70;99.90;;;;;;5109214;27;20425;-67
2022/05/06 04:33:26;;;;;;;24.35;12.73;;;10.70;99.90;;;;;;5121931;27;20019;-70
2022/05/06 04:35:53;;;;;;;25.77;13.98;;;10.70;99.90;;;;;;5119674;27;20110;-69
2022/05/06 04:38:20;;;;;;;26.67;13.68;;;10.70;99.90;;;;;;5123762;27;20027;-69
2022/05/06 04:40:45;;;;;;;24.55;14.32;;;10.60;99.90;;;;;;5129637;27;20441;-70
2022/05/06 04:43:13;;;;;;;23.48;13.50;;;10.70;99.90;;;;;;5128982;27;20027;-70
2022/05/06 04:45:43;;;;;;;25.75;13.05;;;10.70;99.90;;;;;;5112616;27;20400;-69
2022/05/06 04:48:11;;;;;;;25.08;13.27;;;10.80;99.90;;;;;;5128084;27;20088;-70
2022/05/06 04:50:38;;;;;;;25.52;13.65;;;10.80;99.90;;;;;;5129866;27;20035;-70
2022/05/06 04:53:07;;;;;;;26.05;13.38;;;10.80;99.90;;;;;;5122476;27;20383;-70
2022/05/06 04:55:38;;;;;;;26.35;13.88;;;10.80;99.90;;;;;;5130233;27;20058;-69
2022/05/06 04:58:04;;;;;;;21.73;12.40;;;10.90;99.90;;;;;;5127867;27;20062;-70
2022/05/06 05:00:31;;;;;;;28.02;14.50;;;10.90;99.90;;;;;;5129376;27;20111;-70
2022/05/06 05:02:57;;;;;;;27.60;14.10;;;10.90;99.90;;;;;;5127898;27;20055;-67
2022/05/06 05:05:24;;;;;;;28.23;15.05;;;10.90;99.90;;;;;;5120164;27;20043;-70
2022/05/06 05:07:50;;;;;;;330.50;16.15;;;10.90;99.90;;;;;;5130389;27;20050;-70
2022/05/06 05:10:15;;;;;;;226.18;15.70;;;10.90;99.90;;;;;;5126635;27;20023;-69
2022/05/06 05:12:41;;;;;;;112.95;14.73;;;10.90;99.90;;;;;;5122562;27;20084;-70
2022/05/06 05:15:07;;;;;;;52.95;14.27;;;10.90;99.90;;;;;;5111517;28;20122;-69
2022/05/06 05:17:33;;;;;;;60.40;14.18;;;10.90;99.90;;;;;;5121538;27;20035;-70
2022/05/06 05:19:58;;;;;;;70.10;14.98;;;10.90;99.90;;;;;;5122041;28;20027;-70
2022/05/06 05:22:24;;;;;;;29.38;15.32;;;10.90;99.90;;;;;;5129332;28;20027;-71
2022/05/06 05:24:50;;;;;;;27.33;15.07;;;10.80;99.90;;;;;;5110294;28;20380;-71
2022/05/06 05:27:16;;;;;;;29.38;15.45;;;10.90;99.90;;;;;;5128774;28;20027;-71
2022/05/06 05:29:42;;;;;;;29.60;16.08;;;10.90;99.90;;;;;;5115861;28;20032;-68
2022/05/06 05:32:09;;;;;;;29.70;16.63;;;10.90;99.90;;;;;;5124034;28;20138;-70
2022/05/06 05:34:35;;;;;;;30.63;15.52;;;10.90;99.90;;;;;;5127426;28;20019;-68
2022/05/06 05:37:00;;;;;;;32.15;16.85;;;11.00;99.90;;;;;;5124724;28;20096;-67
2022/05/06 05:39:26;;;;;;;31.35;17.13;;;11.00;99.90;;;;;;5123794;28;20073;-70
2022/05/06 05:41:52;;;;;;;34.80;17.52;;;11.10;99.90;;;;;;5123935;28;20027;-70
2022/05/06 05:49:48;;;;;;;31.45;16.23;;;11.20;99.90;;;;;;5127742;28;20042;-70
2022/05/06 05:52:14;;;;;;;28.17;15.05;;;11.20;99.90;;;;;;5129012;28;20035;-69
2022/05/06 05:54:40;;;;;;;30.70;16.98;;;11.30;99.90;;;;;;5127743;28;20035;-69
2022/05/06 05:57:06;;;;;;;31.38;16.58;;;11.30;99.90;;;;;;5118384;28;20028;-69
2022/05/06 05:59:33;;;;;;;33.42;16.10;;;11.30;99.90;;;;;;5118849;28;20019;-69
2022/05/06 06:02:01;;;;;;;33.95;18.70;;;11.30;99.90;;;;;;5110227;28;20057;-68
2022/05/06 06:04:27;;;;;;;35.72;20.35;;;11.30;99.90;;;;;;5127256;28;20019;-67
2022/05/06 06:06:53;;;;;;;39.78;21.17;;;11.40;99.90;;;;;;5128740;28;20066;-70
2022/05/06 06:09:22;;;;;;;36.05;20.05;;;11.50;99.90;;;;;;5122313;28;20039;-71
2022/05/06 06:11:51;;;;;;;38.35;20.35;;;11.50;99.90;;;;;;5128933;28;20031;-68
2022/05/06 06:14:17;;;;;;;34.85;18.67;;;11.50;99.90;;;;;;5127477;28;20031;-70
2022/05/06 06:16:43;;;;;;;36.00;18.85;;;11.60;99.90;;;;;;5120991;28;20031;-70
2022/05/06 06:19:09;;;;;;;31.58;17.55;;;11.60;99.90;;;;;;5109233;28;20548;-72
2022/05/06 06:21:35;;;;;;;30.20;16.67;;;11.70;99.90;;;;;;5108821;28;20425;-70
2022/05/06 06:24:00;;;;;;;27.95;15.80;;;11.70;99.90;;;;;;5115025;28;20055;-66
2022/05/06 06:26:26;;;;;;;29.35;15.45;;;11.70;99.90;;;;;;5124696;27;20047;-68
2022/05/06 06:28:52;;;;;;;29.15;15.90;;;11.70;99.90;;;;;;5125146;27;20458;-68
2022/05/06 06:31:18;;;;;;;32.72;17.45;;;11.80;99.90;;;;;;5120127;27;20031;-71
2022/05/06 06:33:43;;;;;;;31.17;16.08;;;11.90;99.90;;;;;;5126214;27;20431;-69
2022/05/06 06:36:09;;;;;;;31.98;17.10;;;11.90;99.90;;;;;;5114794;27;20118;-69
2022/05/06 06:38:35;;;;;;;33.13;17.13;;;11.90;99.90;;;;;;5117131;27;20369;-69
2022/05/06 06:41:01;;;;;;;33.92;16.98;;;11.90;99.90;;;;;;5114473;27;20058;-69
2022/05/06 06:43:26;;;;;;;33.78;18.23;;;11.80;99.90;;;;;;5132255;27;20024;-69
2022/05/06 06:45:53;;;;;;;28.50;16.02;;;11.80;99.90;;;;;;5130955;27;20489;-68
2022/05/06 06:48:18;;;;;;;27.38;15.90;;;11.90;99.90;;;;;;5132323;27;20079;-69
2022/05/06 06:50:44;;;;;;;30.33;16.30;;;12.00;99.90;;;;;;5117546;27;20031;-69
2022/05/06 06:53:10;;;;;;;26.35;15.05;;;12.00;99.90;;;;;;5130989;27;20357;-68
2022/05/06 06:55:36;;;;;;;31.15;14.88;;;12.00;99.90;;;;;;5131983;27;20364;-69
2022/05/06 06:58:02;;;;;;;26.77;14.85;;;12.00;99.90;;;;;;5116605;27;20049;-71
2022/05/06 07:00:28;;;;;;;29.55;14.93;;;12.00;99.90;;;;;;5111062;28;20070;-69
2022/05/06 07:02:56;;;;;;;25.48;14.23;;;12.00;99.90;;;;;;5124829;27;20471;-69
2022/05/06 07:05:22;;;;;;;23.92;13.55;;;12.00;99.90;;;;;;5114197;27;20040;-70
2022/05/06 07:13:17;;;;;;;22.58;12.90;;;12.20;99.90;;;;;;5119207;27;20068;-69
2022/05/06 07:15:43;;;;;;;31.30;13.35;;;12.20;99.90;;;;;;5124610;27;20105;-69
2022/05/06 07:18:09;;;;;;;25.77;11.88;;;12.20;99.90;;;;;;5131325;27;20463;-69
2022/05/06 07:20:34;;;;;;;20.55;12.13;;;12.20;99.90;;;;;;5131547;27;20479;-70
2022/05/06 07:23:00;;;;;;;21.65;12.40;;;12.30;99.90;;;;;;5126762;27;20032;-71
2022/05/06 07:25:26;;;;;;;24.48;12.52;;;12.30;99.90;;;;;;5111590;27;20110;-71
2022/05/06 07:27:51;;;;;;;22.63;11.98;;;12.40;99.90;;;;;;5125072;27;20455;-72
2022/05/06 07:30:17;;;;;;;22.23;10.68;;;12.30;99.90;;;;;;5122603;27;20432;-70
2022/05/06 07:32:43;;;;;;;22.67;11.95;;;12.30;99.90;;;;;;5126188;27;20038;-69
2022/05/06 07:35:09;;;;;;;22.52;11.15;;;12.30;99.90;;;;;;5123980;27;20426;-69
2022/05/06 07:37:34;;;;;;;21.77;11.07;;;12.30;99.90;;;;;;5128347;27;20032;-68
2022/05/06 07:40:01;;;;;;;28.42;12.13;;;12.30;99.90;;;;;;5131991;27;20042;-69
2022/05/06 07:42:30;;;;;;;19.73;11.57;;;12.40;99.90;;;;;;5129497;27;20027;-71
2022/05/06 07:44:59;;;;;;;21.42;11.07;;;12.40;99.90;;;;;;5131612;27;20015;-72
2022/05/06 07:47:25;;;;;;;21.10;11.18;;;12.50;99.90;;;;;;5130576;27;20050;-71
2022/05/06 07:49:51;;;;;;;22.17;11.30;;;12.50;99.90;;;;;;5129623;27;20039;-72
2022/05/06 07:52:17;;;;;;;21.98;11.00;;;12.60;99.90;;;;;;5130149;27;20372;-71
2022/05/06 07:54:43;;;;;;;20.23;10.93;;;12.60;99.90;;;;;;5128790;27;20027;-72
2022/05/06 07:57:08;;;;;;;24.30;11.25;;;12.60;99.90;;;;;;5131446;27;20478;-68
2022/05/06 07:59:34;;;;;;;19.27;10.85;;;12.60;99.90;;;;;;5128952;27;20027;-68
2022/05/06 08:04:48;;;;;;;23.52;10.60;;;12.80;99.90;;;;;;5115061;27;20064;-69
2022/05/06 08:07:15;;;;;;;19.42;9.98;;;12.80;99.90;;;;;;5123980;27;20039;-71
2022/05/06 08:09:41;;;;;;;20.42;9.88;;;12.70;99.90;;;;;;5129651;27;20045;-69
2022/05/06 08:12:08;;;;;;;23.48;10.82;;;12.70;99.90;;;;;;5113064;27;20034;-69
2022/05/06 08:14:34;;;;;;;19.20;10.07;;;12.70;99.90;;;;;;5113092;27;20047;-69
2022/05/06 08:17:00;;;;;;;19.83;10.02;;;12.80;99.90;;;;;;5121463;27;20035;-69
2022/05/06 08:19:26;;;;;;;20.33;9.85;;;12.80;99.90;;;;;;5124088;27;20041;-69
2022/05/06 08:21:53;;;;;;;24.13;9.48;;;12.90;99.90;;;;;;5131312;27;20019;-68
2022/05/06 08:24:19;;;;;;;20.58;9.27;;;12.90;99.90;;;;;;5128993;27;20044;-71
2022/05/06 08:26:46;;;;;;;23.02;10.85;;;13.00;99.90;;;;;;5130965;27;20114;-67
2022/05/06 08:29:12;;;;;;;17.35;9.38;;;13.00;99.90;;;;;;5125035;27;20054;-66
2022/05/06 08:31:38;;;;;;;19.70;9.57;;;13.10;99.90;;;;;;5110274;28;20459;-68
2022/05/06 08:34:08;;;;;;;17.73;9.57;;;13.10;99.90;;;;;;5113097;27;20037;-71
2022/05/06 08:36:35;;;;;;;;;;;13.10;99.90;;;;;;5110465;28;20035;-68
2022/05/06 08:39:02;;;;;;;21.83;9.98;;;13.10;99.90;;;;;;5117972;27;19915;-70
2022/05/06 08:41:29;;;;;;;17.50;8.85;;;13.10;99.90;;;;;;5130023;27;20273;-68
2022/05/06 08:43:54;;;;;;;18.98;8.98;;;13.10;99.90;;;;;;5125787;27;20539;-68
2022/05/06 08:51:54;;;;;;;19.30;8.77;;;13.20;99.90;;;;;;5110338;28;20056;-69
2022/05/06 08:54:21;;;;;;;17.45;8.60;;;13.30;99.90;;;;;;5120876;27;20492;-69
2022/05/06 08:56:47;;;;;;;15.10;8.25;;;13.30;99.90;;;;;;5129665;27;20160;-69
2022/05/06 08:59:13;;;;;;;16.65;8.02;;;13.40;99.90;;;;;;5118661;27;20118;-66
2022/05/06 09:01:38;;;;;;;16.42;8.40;;;13.50;99.90;;;;;;5119676;27;20030;-68
2022/05/06 09:04:05;;;;;;;15.40;8.35;;;13.50;99.90;;;;;;5111837;27;20020;-70
2022/05/06 09:06:32;;;;;;;16.90;8.05;;;13.60;99.90;;;;;;5111184;27;20624;-70
2022/05/06 09:09:00;;;;;;;19.58;8.82;;;13.80;99.90;;;;;;5126968;27;20054;-69
2022/05/06 09:14:17;;;;;;;16.15;8.18;;;13.80;99.90;;;;;;5106564;27;20102;-66
2022/05/06 09:16:46;;;;;;;17.10;8.40;;;13.80;99.90;;;;;;5128593;27;20027;-67
2022/05/06 09:19:25;;;;;;;21.30;8.82;;;14.00;99.90;;;;;;5130169;27;20476;-68
2022/05/06 09:22:08;;;;;;;13.65;7.55;;;14.20;99.90;;;;;;5127619;27;20038;-71
2022/05/06 09:24:37;;;;;;;17.52;7.80;;;14.30;99.90;;;;;;5114164;28;20030;-69
2022/05/06 09:27:06;;;;;;;16.58;7.82;;;14.50;99.90;;;;;;5111698;28;20031;-71
2022/05/06 09:29:38;;;;;;;11.90;6.63;;;14.50;99.90;;;;;;5108987;28;20024;-70
2022/05/06 09:32:30;;;;;;;14.63;8.05;;;14.60;99.90;;;;;;5127997;28;20491;-69
2022/05/06 09:35:13;;;;;;;12.63;7.35;;;14.90;99.90;;;;;;5128163;28;20034;-69
2022/05/06 09:37:39;;;;;;;14.27;7.28;;;15.20;99.90;;;;;;5109429;28;20394;-68
2022/05/06 09:40:10;;;;;;;16.23;7.30;;;15.30;99.90;;;;;;5130481;28;20030;-66
2022/05/06 09:42:37;;;;;;;13.70;7.40;;;15.10;99.90;;;;;;5127945;28;20026;-69
2022/05/06 09:45:04;;;;;;;21.45;7.85;;;14.90;99.90;;;;;;5127783;27;20031;-69
2022/05/06 09:47:32;;;;;;;12.55;6.82;;;14.60;99.90;;;;;;5128561;28;20028;-69
2022/05/06 09:49:58;;;;;;;10.90;6.70;;;14.60;99.90;;;;;;5124630;28;20039;-70
2022/05/06 09:52:24;;;;;;;12.95;7.05;;;14.70;99.90;;;;;;5121385;28;20122;-70
2022/05/06 09:54:49;;;;;;;11.68;6.90;;;14.80;99.90;;;;;;5128314;28;20031;-68
2022/05/06 09:57:20;;;;;;;12.10;6.35;;;14.80;99.90;;;;;;5117067;28;20042;-68
2022/05/06 09:59:47;;;;;;;11.50;6.03;;;14.80;99.90;;;;;;5128294;27;20075;-68
2022/05/06 10:02:13;;;;;;;13.63;6.32;;;14.90;99.90;;;;;;5123342;27;20023;-69
2022/05/06 10:04:40;;;;;;;13.35;6.13;;;14.80;99.90;;;;;;5128369;27;20034;-69
2022/05/06 10:07:14;;;;;;;13.20;6.55;;;14.80;99.90;;;;;;5133512;27;20038;-69
2022/05/06 10:10:06;;;;;;;15.13;7.03;;;14.90;99.90;;;;;;5133044;27;20035;-69
2022/05/06 10:12:39;;;;;;;17.38;6.70;;;15.10;99.90;;;;;;5126398;27;20028;-70
2022/05/06 10:15:08;;;;;;;10.73;6.43;;;15.30;99.90;;;;;;5113425;28;20041;-69
2022/05/06 10:18:02;;;;;;;13.57;6.72;;;15.50;99.90;;;;;;5096790;28;20042;-69
2022/05/06 10:20:41;;;;;;;13.60;7.18;;;15.70;99.90;;;;;;5129139;27;20070;-68
2022/05/06 10:23:15;;;;;;;13.50;5.88;;;15.80;99.90;;;;;;5130620;27;20080;-68
2022/05/06 10:25:41;;;;;;;13.98;7.05;;;15.90;99.90;;;;;;5126192;27;20132;-69
2022/05/06 10:34:15;;;;;;;10.07;5.70;;;15.60;99.90;;;;;;5118900;27;20506;-67
2022/05/06 10:39:20;;;;;;;9.65;5.93;;;15.80;99.90;;;;;;5071140;22;20079;-68
2022/05/06 10:42:11;;;;;;;11.38;6.05;;;16.10;99.90;;;;;;5052084;28;20108;-68
2022/05/06 10:44:51;;;;;;;10.80;6.55;;;16.10;99.90;;;;;;5061320;28;20052;-67
2022/05/06 10:47:19;;;;;;;13.68;6.18;;;16.00;99.90;;;;;;5061075;28;20079;-67
2022/05/06 10:49:52;;;;;;;10.95;5.90;;;16.10;99.90;;;;;;5054904;28;20028;-68
2022/05/06 10:52:18;;;;;;;10.20;5.78;;;16.20;99.90;;;;;;5067457;28;20380;-68
2022/05/06 10:54:47;;;;;;;11.90;6.07;;;16.20;99.90;;;;;;5070372;28;20044;-69
2022/05/06 10:57:18;;;;;;;13.02;6.05;;;16.10;99.90;;;;;;5064470;28;20028;-69
2022/05/06 10:59:51;;;;;;;10.98;6.18;;;16.20;99.90;;;;;;5060254;28;20070;-68
2022/05/06 11:02:20;;;;;;;10.23;5.35;;;16.10;99.90;;;;;;5067984;28;20028;-68
2022/05/06 11:04:53;;;;;;;14.57;5.80;;;16.30;99.90;;;;;;5066006;28;20131;-67
2022/05/06 11:07:19;;;;;;;11.05;6.53;;;16.30;99.90;;;;;;5064137;28;20083;-69
2022/05/06 11:09:46;;;;;;;15.30;5.97;;;16.30;99.90;;;;;;5068669;28;20032;-68
2022/05/06 11:12:27;;;;;;;18.52;6.35;;;16.30;99.90;;;;;;5056040;28;20028;-67
2022/05/06 11:14:56;;;;;;;14.05;6.55;;;16.20;99.90;;;;;;5086428;28;20020;-68
2022/05/06 11:17:23;;;;;;;13.77;6.60;;;16.20;99.90;;;;;;5070291;28;20071;-68
2022/05/06 11:19:49;;;;;;;10.43;6.43;;;16.20;99.90;;;;;;5070586;28;20063;-70
2022/05/06 11:22:15;;;;;;;15.70;6.97;;;16.20;99.90;;;;;;5070573;28;20032;-68
2022/05/06 11:24:41;;;;;;;14.88;6.70;;;16.20;99.90;;;;;;5069639;28;20353;-69
2022/05/06 11:27:17;;;;;;;15.27;7.43;;;16.30;99.90;;;;;;5070210;28;20044;-68
2022/05/06 11:29:59;;;;;;;13.25;6.45;;;16.30;99.90;;;;;;5072055;28;20017;-68
2022/05/06 11:32:29;;;;;;;11.27;6.38;;;16.50;99.90;;;;;;5050783;28;20036;-69
2022/05/06 11:34:59;;;;;;;10.65;6.18;;;16.60;99.90;;;;;;5065127;28;20033;-69
2022/05/06 11:37:26;;;;;;;15.10;6.63;;;16.60;99.90;;;;;;5047936;28;20053;-68
2022/05/06 11:40:18;;;;;;;12.32;6.50;;;16.60;99.90;;;;;;5050280;28;20091;-68
2022/05/06 11:42:39;;;;;;;11.65;6.20;;;16.70;99.90;;;;;;5049537;28;20619;-70
2022/05/06 11:47:50;;;;;;;14.50;7.20;;;16.80;99.90;;;;;;5068364;28;20093;-68
2022/05/06 11:50:16;;;;;;;16.77;7.13;;;16.70;99.90;;;;;;5051027;28;20491;-68
2022/05/06 11:52:44;;;;;;;11.73;6.88;;;16.70;99.90;;;;;;5049232;28;20448;-68
2022/05/06 11:55:10;;;;;;;10.95;6.63;;;16.70;99.90;;;;;;5049501;28;20140;-68
2022/05/06 11:57:39;;;;;;;13.65;6.90;;;16.60;99.90;;;;;;5048754;28;20120;-68
2022/05/06 12:00:06;;;;;;;16.23;7.40;;;16.50;99.90;;;;;;5049158;28;20064;-66
2022/05/06 12:02:32;;;;;;;15.15;6.85;;;16.60;99.90;;;;;;5046877;28;20108;-68
2022/05/06 12:04:58;;;;;;;11.40;6.30;;;16.50;99.90;;;;;;5057219;28;20062;-68
2022/05/06 12:07:46;;;;;;;15.27;6.28;;;16.60;99.90;;;;;;5048316;28;20053;-68
2022/05/06 12:10:32;;;;;;;14.68;7.10;;;16.60;99.90;;;;;;5049333;28;20033;-68
2022/05/06 12:13:08;;;;;;;12.77;6.63;;;16.70;99.90;;;;;;5045766;28;20106;-72
2022/05/06 12:15:38;;;;;;;11.27;6.15;;;16.80;99.90;;;;;;5012160;28;20036;-70
2022/05/06 12:18:09;;;;;;;13.70;7.57;;;16.90;99.90;;;;;;5030582;28;20482;-70
2022/05/06 12:20:43;;;;;;;13.10;6.75;;;16.80;99.90;;;;;;5031012;28;20041;-75
2022/05/06 12:23:10;;;;;;;11.23;6.72;;;16.80;99.90;;;;;;5048372;28;20040;-76
2022/05/06 12:25:41;;;;;;;11.18;6.20;;;16.70;99.90;;;;;;5048630;28;20029;-75
2022/05/06 12:28:15;;;;;;;14.70;6.55;;;16.80;99.90;;;;;;5046918;28;20025;-75
2022/05/06 12:30:42;;;;;;;16.92;6.78;;;16.70;99.90;;;;;;5047811;28;20021;-75
2022/05/06 12:33:15;;;;;;;14.75;6.43;;;16.70;99.90;;;;;;5048243;28;20025;-75
2022/05/06 12:36:02;;;;;;;10.40;6.25;;;16.60;99.90;;;;;;5046981;28;20028;-75
2022/05/06 12:38:39;;;;;;;15.05;6.22;;;16.50;99.90;;;;;;5062801;28;20056;-76
2022/05/06 12:41:26;;;;;;;11.80;6.57;;;16.60;99.90;;;;;;5068682;28;20377;-73
2022/05/06 12:43:59;;;;;;;13.23;6.57;;;16.70;99.90;;;;;;5068114;28;20047;-75
2022/05/06 12:46:34;;;;;;;10.93;6.35;;;16.80;99.90;;;;;;5067280;28;20040;-74
2022/05/06 12:51:46;;;;;;;11.50;6.47;;;16.70;99.90;;;;;;5066857;28;20369;-76
2022/05/06 12:54:12;;;;;;;12.95;6.32;;;16.80;99.90;;;;;;5070338;28;20112;-77
2022/05/06 12:56:39;;;;;;;11.57;6.70;;;16.80;99.90;;;;;;5068152;28;20033;-75
2022/05/06 12:59:05;;;;;;;12.02;6.65;;;16.70;99.90;;;;;;5050251;28;20044;-74
2022/05/06 13:01:32;;;;;;;12.55;6.30;;;16.80;99.90;;;;;;5069048;28;20134;-75
2022/05/06 13:03:58;;;;;;;12.60;7.03;;;16.80;99.90;;;;;;5068497;28;20115;-74
2022/05/06 13:06:24;;;;;;;11.98;6.72;;;16.70;99.90;;;;;;5051103;28;20569;-73
2022/05/06 13:08:50;;;;;;;12.88;6.88;;;16.70;99.90;;;;;;5068509;28;20024;-77
2022/05/06 13:11:16;;;;;;;12.02;6.63;;;16.80;99.90;;;;;;5066631;28;20108;-73
2022/05/06 13:13:42;;;;;;;10.38;6.57;;;16.80;99.90;;;;;;5066064;28;20385;-75
2022/05/06 13:16:09;;;;;;;12.43;6.57;;;16.70;99.90;;;;;;5068105;28;20032;-74
2022/05/06 13:18:35;;;;;;;11.68;6.75;;;16.70;99.90;;;;;;5067578;28;20436;-73
2022/05/06 13:21:01;;;;;;;11.77;6.50;;;16.80;99.90;;;;;;5069692;28;20357;-74
2022/05/06 13:23:27;;;;;;;11.43;6.70;;;16.90;99.90;;;;;;5068772;28;20028;-72